Terminal Aerodrome Forecast
Issued by NWS Green Bay, WI

Home | Current Version | Previous Version | Graphics & Text | Print | Product List | Glossary On
Versions: 1 2 3 4 5 6 7 8 9 10 11 12 13 14 15 16 17 18 19 20 21 22 23 24 25 26 27 28 29 30 31 32 33 34 35 36
000
FTUS43 KGRB 210400 AAA
TAFGRB
TAF AMD
KGRB 210415Z 2104/2124 VRB03KT 6SM BR SCT025 BKN060
      TEMPO 2104/2108 2SM -RA BR BKN025
     FM210800 VRB03KT 2SM BR SCT025 OVC050
     FM211500 VRB03KT 5SM -SHRA BR SCT030 OVC060=

USA.gov is the U.S. government's official web portal to all federal, state and local government web resources and services.